Time;durP1;ratioP1;P1;durP2;ratioP2;P2;SDS_P1;SDS_P2;PMS_P1;PMS_P2;Temp;Humidity;BMP_temperature;BMP_pressure;BME280_temperature;BME280_humidity;BME280_pressure;Samples;Min_cycle;Max_cycle;Signal;HPM_P1;HPM_P2
2024/01/23 00:00:38;;;;;;;1.43;1.33;;;;;5.90;96537.00;;;;5037426;28;20292;-60
2024/01/23 00:03:07;;;;;;;0.60;0.60;;;;;5.80;96529.00;;;;5036547;28;20291;-60
2024/01/23 00:05:34;;;;;;;0.67;0.67;;;;;5.80;96536.00;;;;5036890;28;20561;-61
2024/01/23 00:08:03;;;;;;;1.00;1.00;;;;;5.80;96533.00;;;;5018610;28;20208;-61
2024/01/23 00:10:30;;;;;;;0.73;0.73;;;;;5.80;96545.00;;;;5036650;28;20195;-60
2024/01/23 00:12:58;;;;;;;0.60;0.60;;;;;5.90;96539.00;;;;5038072;28;20577;-60
2024/01/23 00:15:26;;;;;;;0.63;0.63;;;;;5.80;96527.00;;;;5037491;28;20203;-60
2024/01/23 00:17:53;;;;;;;0.80;0.80;;;;;5.70;96532.00;;;;5018679;28;20193;-60
2024/01/23 00:20:22;;;;;;;1.37;1.33;;;;;5.80;96532.00;;;;5036628;28;20667;-60
2024/01/23 00:22:50;;;;;;;1.00;1.00;;;;;5.90;96527.00;;;;5038248;28;20217;-60
2024/01/23 00:25:18;;;;;;;1.23;1.13;;;;;5.90;96550.00;;;;5020466;28;20239;-60
2024/01/23 00:27:46;;;;;;;0.53;0.53;;;;;5.70;96522.00;;;;5037416;28;20204;-59
2024/01/23 00:30:14;;;;;;;0.63;0.63;;;;;5.70;96505.00;;;;5036067;28;20189;-59
2024/01/23 00:32:42;;;;;;;0.60;0.60;;;;;5.60;96517.00;;;;5018224;28;20228;-60
2024/01/23 00:35:10;;;;;;;0.60;0.60;;;;;5.80;96512.00;;;;5036608;28;20221;-59
2024/01/23 00:37:39;;;;;;;1.37;1.23;;;;;5.70;96517.00;;;;5036496;28;20200;-59
2024/01/23 00:40:08;;;;;;;0.70;0.70;;;;;5.70;96506.00;;;;5035628;28;20200;-59
2024/01/23 00:42:36;;;;;;;0.73;0.73;;;;;5.60;96514.00;;;;5036335;28;20215;-59
2024/01/23 00:45:03;;;;;;;0.80;0.80;;;;;5.60;96522.00;;;;5037446;28;20304;-60
2024/01/23 00:47:32;;;;;;;0.90;0.90;;;;;5.60;96520.00;;;;5035868;28;20535;-60
2024/01/23 00:49:59;;;;;;;0.70;0.70;;;;;5.70;96533.00;;;;5036011;28;20243;-60
2024/01/23 00:52:26;;;;;;;0.60;0.60;;;;;5.60;96528.00;;;;5035802;28;20219;-60
2024/01/23 00:54:58;;;;;;;0.70;0.70;;;;;5.70;96539.00;;;;5019230;28;20203;-60
2024/01/23 00:57:26;;;;;;;0.70;0.70;;;;;5.70;96538.00;;;;5036729;28;20185;-60
2024/01/23 00:59:53;;;;;;;0.70;0.70;;;;;5.60;96560.00;;;;5037179;28;20196;-60
2024/01/23 01:02:25;;;;;;;0.70;0.70;;;;;5.50;96563.00;;;;5017678;28;20227;-60
2024/01/23 01:04:52;;;;;;;0.70;0.70;;;;;5.50;96568.00;;;;5036837;28;20208;-61
2024/01/23 01:07:19;;;;;;;1.07;1.07;;;;;5.40;96577.00;;;;5037021;28;20188;-60
2024/01/23 01:09:47;;;;;;;4.77;1.47;;;;;5.30;96576.00;;;;5036790;28;20223;-60
2024/01/23 01:12:16;;;;;;;0.50;0.50;;;;;5.20;96570.00;;;;5036302;28;20710;-60
2024/01/23 01:14:43;;;;;;;1.70;1.00;;;;;5.20;96562.00;;;;5035062;28;20255;-60
2024/01/23 01:17:11;;;;;;;0.87;0.87;;;;;5.20;96564.00;;;;5035053;28;20195;-60
2024/01/23 01:19:38;;;;;;;3.90;1.10;;;;;5.20;96563.00;;;;5036523;28;20202;-60
2024/01/23 01:22:06;;;;;;;0.70;0.70;;;;;5.10;96560.00;;;;5017964;28;20235;-60
2024/01/23 01:24:33;;;;;;;0.60;0.60;;;;;5.10;96575.00;;;;5036170;28;20216;-60
2024/01/23 01:27:01;;;;;;;0.77;0.77;;;;;5.00;96591.00;;;;5034588;28;20197;-60
2024/01/23 01:29:30;;;;;;;1.00;1.00;;;;;5.00;96597.00;;;;5035058;28;20193;-60
2024/01/23 01:31:57;;;;;;;0.70;0.70;;;;;5.10;96579.00;;;;5035193;28;20213;-60
2024/01/23 01:34:25;;;;;;;0.60;0.60;;;;;5.20;96596.00;;;;5035915;28;20192;-60
2024/01/23 01:36:52;;;;;;;0.70;0.70;;;;;5.20;96597.00;;;;5035411;28;20199;-60
2024/01/23 01:39:20;;;;;;;1.03;1.03;;;;;5.30;96594.00;;;;5036279;28;20208;-60
2024/01/23 01:41:52;;;;;;;1.10;1.10;;;;;5.20;96589.00;;;;5037001;28;20266;-60
2024/01/23 01:44:20;;;;;;;1.67;1.23;;;;;5.20;96601.00;;;;5035428;28;20204;-60
2024/01/23 01:46:49;;;;;;;0.60;0.60;;;;;5.30;96604.00;;;;5034635;28;20268;-60
2024/01/23 01:49:17;;;;;;;4.63;0.90;;;;;5.10;96610.00;;;;5035333;28;20206;-60
2024/01/23 01:51:46;;;;;;;0.70;0.70;;;;;5.20;96604.00;;;;5035855;28;20193;-60
2024/01/23 01:54:13;;;;;;;0.60;0.60;;;;;5.30;96598.00;;;;5017038;28;20192;-60
2024/01/23 01:56:42;;;;;;;1.47;1.03;;;;;5.30;96611.00;;;;5035937;28;20197;-60
2024/01/23 01:59:10;;;;;;;0.93;0.93;;;;;5.20;96604.00;;;;5035119;28;20586;-61
2024/01/23 02:01:37;;;;;;;5.90;1.00;;;;;5.30;96614.00;;;;5034941;28;20275;-60
2024/01/23 02:04:06;;;;;;;0.60;0.60;;;;;5.30;96601.00;;;;5035037;28;20224;-60
2024/01/23 02:06:35;;;;;;;0.70;0.70;;;;;5.40;96599.00;;;;5035186;28;20246;-60
2024/01/23 02:09:04;;;;;;;6.00;1.50;;;;;5.50;96607.00;;;;5035084;28;20250;-61
2024/01/23 02:11:32;;;;;;;2.17;1.10;;;;;5.40;96623.00;;;;5034716;28;20194;-60
2024/01/23 02:13:59;;;;;;;4.00;1.27;;;;;5.40;96625.00;;;;5016125;28;20273;-60
2024/01/23 02:16:27;;;;;;;0.90;0.90;;;;;5.40;96636.00;;;;5034375;28;20200;-60
2024/01/23 02:18:54;;;;;;;0.60;0.60;;;;;5.30;96636.00;;;;5036042;28;20195;-60
2024/01/23 02:21:23;;;;;;;1.90;1.00;;;;;5.30;96688.00;;;;5034867;28;20189;-60
2024/01/23 02:23:52;;;;;;;0.90;0.90;;;;;5.30;96637.00;;;;5035194;28;20212;-60
2024/01/23 02:26:19;;;;;;;0.83;0.83;;;;;5.20;96636.00;;;;5034150;28;20189;-60
2024/01/23 02:28:46;;;;;;;3.40;1.43;;;;;5.20;96623.00;;;;5034230;28;20202;-60
2024/01/23 02:31:14;;;;;;;0.80;0.80;;;;;5.30;96648.00;;;;5033905;28;20197;-60
2024/01/23 02:33:41;;;;;;;1.23;1.23;;;;;5.30;96636.00;;;;5034881;28;20213;-60
2024/01/23 02:36:09;;;;;;;0.77;0.77;;;;;5.30;96633.00;;;;5034094;28;20191;-60
2024/01/23 02:38:37;;;;;;;1.83;1.47;;;;;5.30;96635.00;;;;5034028;28;20192;-61
2024/01/23 02:41:06;;;;;;;1.43;1.33;;;;;5.20;96613.00;;;;5035366;28;20188;-60
2024/01/23 02:43:33;;;;;;;2.10;1.30;;;;;5.30;96613.00;;;;5033357;28;20689;-60
2024/01/23 02:46:01;;;;;;;0.60;0.60;;;;;5.30;96616.00;;;;5034018;28;20227;-60
2024/01/23 02:48:28;;;;;;;29.90;1.83;;;;;5.30;96609.00;;;;5036258;28;20198;-61
2024/01/23 02:50:55;;;;;;;0.60;0.60;;;;;5.30;96612.00;;;;5035928;28;20194;-61
2024/01/23 02:53:23;;;;;;;0.80;0.80;;;;;5.20;96608.00;;;;5033584;28;20214;-60
2024/01/23 02:55:50;;;;;;;12.50;1.10;;;;;5.30;96614.00;;;;5035298;28;20200;-60
2024/01/23 02:58:20;;;;;;;4.37;1.27;;;;;5.20;96626.00;;;;5033765;28;20564;-60
2024/01/23 03:00:48;;;;;;;6.57;1.00;;;;;5.20;96624.00;;;;5035710;28;20195;-60
2024/01/23 03:03:15;;;;;;;0.60;0.60;;;;;5.30;96604.00;;;;5018158;28;20285;-60
2024/01/23 03:05:44;;;;;;;0.80;0.80;;;;;5.30;96629.00;;;;5023359;28;20215;-60
2024/01/23 03:08:11;;;;;;;0.80;0.80;;;;;5.20;96627.00;;;;5043939;28;20227;-60
2024/01/23 03:10:39;;;;;;;0.97;0.80;;;;;5.30;96609.00;;;;5043028;28;20252;-60
2024/01/23 03:13:06;;;;;;;0.80;0.80;;;;;5.20;96600.00;;;;5041283;28;20291;-60
2024/01/23 03:15:35;;;;;;;0.60;0.60;;;;;5.30;96619.00;;;;5040043;28;20201;-60
2024/01/23 03:18:05;;;;;;;1.47;1.37;;;;;5.30;96632.00;;;;5043213;28;20189;-60
2024/01/23 03:20:34;;;;;;;0.60;0.60;;;;;5.30;96598.00;;;;5041364;28;20184;-60
2024/01/23 03:23:02;;;;;;;0.93;0.80;;;;;5.30;96653.00;;;;5038578;28;20216;-60
2024/01/23 03:25:29;;;;;;;5.90;2.23;;;;;5.30;96642.00;;;;5040998;28;20221;-60
2024/01/23 03:27:58;;;;;;;1.47;1.10;;;;;5.30;96625.00;;;;5040584;28;20222;-60
2024/01/23 03:30:29;;;;;;;1.00;1.00;;;;;5.30;96659.00;;;;5041063;28;20594;-60
2024/01/23 03:32:59;;;;;;;7.73;0.90;;;;;5.20;96693.00;;;;5040739;28;20216;-60
2024/01/23 03:35:26;;;;;;;0.93;0.93;;;;;5.30;96665.00;;;;5040767;28;20555;-60
2024/01/23 03:37:55;;;;;;;2.87;1.30;;;;;5.30;96655.00;;;;5041080;28;20192;-60
2024/01/23 03:40:22;;;;;;;0.60;0.60;;;;;5.40;96648.00;;;;5039752;28;20613;-60
2024/01/23 03:42:52;;;;;;;10.73;1.33;;;;;5.40;96661.00;;;;5041162;28;20298;-60
2024/01/23 03:45:20;;;;;;;2.83;1.10;;;;;5.30;96691.00;;;;5041407;28;20216;-60
2024/01/23 03:47:47;;;;;;;7.43;1.57;;;;;5.40;96705.00;;;;5040697;28;20192;-60
2024/01/23 03:50:17;;;;;;;0.90;0.90;;;;;5.50;96688.00;;;;5040687;28;20282;-60
2024/01/23 03:52:44;;;;;;;1.43;1.30;;;;;5.40;96695.00;;;;5039653;28;20266;-60
2024/01/23 03:55:12;;;;;;;2.60;1.10;;;;;5.50;96689.00;;;;5039918;28;20188;-60
2024/01/23 03:57:39;;;;;;;1.30;1.30;;;;;5.50;96705.00;;;;5040019;28;20586;-60
2024/01/23 04:00:08;;;;;;;12.33;2.80;;;;;5.50;96697.00;;;;5040877;28;20223;-60
2024/01/23 04:02:37;;;;;;;1.67;0.90;;;;;5.60;96702.00;;;;5040778;28;20211;-60
2024/01/23 04:05:05;;;;;;;4.70;1.07;;;;;5.50;96705.00;;;;5040267;28;20718;-60
2024/01/23 04:07:34;;;;;;;0.90;0.90;;;;;5.60;96714.00;;;;5040011;28;20246;-60
2024/01/23 04:10:01;;;;;;;0.63;0.63;;;;;5.70;96719.00;;;;5042293;28;20566;-60
2024/01/23 04:12:29;;;;;;;0.97;0.97;;;;;5.70;96697.00;;;;5039986;28;20217;-60
2024/01/23 04:14:58;;;;;;;7.43;1.03;;;;;5.70;96701.00;;;;5039868;28;20556;-60
2024/01/23 04:17:26;;;;;;;1.03;1.03;;;;;5.60;96688.00;;;;5035850;28;20252;-60
2024/01/23 04:19:53;;;;;;;1.57;0.93;;;;;5.60;96701.00;;;;5018597;28;20193;-60
2024/01/23 04:22:20;;;;;;;3.97;1.03;;;;;5.50;96700.00;;;;5036375;28;20215;-60
2024/01/23 04:24:49;;;;;;;0.83;0.77;;;;;5.50;96724.00;;;;5036472;28;20220;-60
2024/01/23 04:27:16;;;;;;;4.83;1.20;;;;;5.40;96710.00;;;;5036880;28;20549;-60
2024/01/23 04:29:44;;;;;;;5.20;1.27;;;;;5.50;96716.00;;;;5036728;28;20204;-60
2024/01/23 04:32:11;;;;;;;0.97;0.97;;;;;5.40;96736.00;;;;5036126;28;20235;-60
2024/01/23 04:34:38;;;;;;;0.93;0.93;;;;;5.30;96742.00;;;;5036621;28;20625;-60
2024/01/23 04:37:06;;;;;;;0.80;0.80;;;;;5.20;96756.00;;;;5037053;28;20192;-60
2024/01/23 04:39:33;;;;;;;0.80;0.80;;;;;5.10;96772.00;;;;5037335;28;20200;-60
2024/01/23 04:42:02;;;;;;;3.30;1.10;;;;;5.10;96777.00;;;;5035732;28;20209;-60
2024/01/23 04:44:30;;;;;;;0.60;0.60;;;;;4.90;96772.00;;;;5036399;28;20216;-62
2024/01/23 04:46:57;;;;;;;1.10;1.10;;;;;4.80;96795.00;;;;5038144;28;20542;-61
2024/01/23 04:49:25;;;;;;;2.90;1.00;;;;;4.80;96790.00;;;;5035669;28;20262;-60
2024/01/23 04:51:52;;;;;;;0.60;0.60;;;;;4.70;96805.00;;;;5035880;28;20696;-60
2024/01/23 04:54:20;;;;;;;1.50;0.80;;;;;4.60;96811.00;;;;5035450;28;20188;-62
2024/01/23 04:56:50;;;;;;;1.73;1.60;;;;;4.50;96777.00;;;;5036061;28;20680;-60
2024/01/23 04:59:19;;;;;;;2.00;1.43;;;;;4.30;96801.00;;;;5036094;28;20683;-60
2024/01/23 05:01:46;;;;;;;2.13;1.43;;;;;4.20;96815.00;;;;5036150;28;20255;-60
2024/01/23 05:04:14;;;;;;;0.93;0.93;;;;;4.20;96830.00;;;;5017759;28;20664;-61
2024/01/23 05:06:41;;;;;;;0.50;0.50;;;;;4.10;96822.00;;;;5035859;28;20214;-60
2024/01/23 05:09:09;;;;;;;1.00;1.00;;;;;4.10;96824.00;;;;5037616;28;20561;-60
2024/01/23 05:11:37;;;;;;;0.60;0.60;;;;;4.10;96827.00;;;;5037077;28;20255;-60
2024/01/23 05:14:05;;;;;;;0.60;0.60;;;;;4.00;96846.00;;;;5037598;28;20207;-61
2024/01/23 05:16:39;;;;;;;0.57;0.57;;;;;4.00;96857.00;;;;5037330;28;20192;-61
2024/01/23 05:19:06;;;;;;;0.50;0.50;;;;;4.10;96867.00;;;;5022176;28;20219;-59
2024/01/23 05:21:34;;;;;;;1.00;1.00;;;;;3.90;96888.00;;;;5036675;28;20200;-60
2024/01/23 05:24:03;;;;;;;0.60;0.60;;;;;3.90;96895.00;;;;5036528;28;20199;-59
2024/01/23 05:26:30;;;;;;;0.70;0.70;;;;;3.90;96875.00;;;;5036911;28;20553;-59
2024/01/23 05:28:57;;;;;;;0.70;0.70;;;;;3.80;96884.00;;;;5038564;28;20197;-61
2024/01/23 05:31:28;;;;;;;0.83;0.83;;;;;3.70;96883.00;;;;5036921;28;20197;-60
2024/01/23 05:33:56;;;;;;;0.60;0.60;;;;;3.70;96879.00;;;;5036823;28;20208;-60
2024/01/23 05:36:24;;;;;;;0.70;0.70;;;;;3.70;96871.00;;;;5036041;28;20649;-59
2024/01/23 05:38:51;;;;;;;0.77;0.77;;;;;3.80;96881.00;;;;5035938;28;20200;-60
2024/01/23 05:41:19;;;;;;;0.60;0.60;;;;;3.70;96880.00;;;;5036804;28;20196;-59
2024/01/23 05:43:48;;;;;;;0.60;0.60;;;;;3.70;96889.00;;;;5037511;28;20299;-59
2024/01/23 05:46:15;;;;;;;0.60;0.60;;;;;3.50;96886.00;;;;5036776;28;20212;-59
2024/01/23 05:48:42;;;;;;;0.70;0.70;;;;;3.60;96879.00;;;;5035150;28;20246;-59
2024/01/23 05:51:11;;;;;;;0.60;0.60;;;;;3.50;96895.00;;;;5035368;28;20699;-59
2024/01/23 05:53:38;;;;;;;0.60;0.60;;;;;3.30;96900.00;;;;5035961;28;20284;-59
2024/01/23 05:56:07;;;;;;;0.53;0.53;;;;;3.40;96896.00;;;;5036217;28;20668;-59
2024/01/23 05:58:34;;;;;;;1.10;1.10;;;;;3.30;96895.00;;;;5035585;28;20659;-60
2024/01/23 06:01:01;;;;;;;0.70;0.70;;;;;3.30;96908.00;;;;5034427;28;20192;-59
2024/01/23 06:03:29;;;;;;;0.60;0.60;;;;;3.20;96904.00;;;;5034885;28;20213;-60
2024/01/23 06:05:56;;;;;;;0.60;0.60;;;;;3.30;96912.00;;;;5034354;28;20684;-60
2024/01/23 06:08:25;;;;;;;0.50;0.50;;;;;3.10;96910.00;;;;5035072;28;20641;-60
2024/01/23 06:10:56;;;;;;;0.60;0.60;;;;;3.20;96917.00;;;;5036843;28;20193;-60
2024/01/23 06:13:23;;;;;;;0.60;0.60;;;;;3.30;96929.00;;;;5036062;28;20219;-60
2024/01/23 06:15:51;;;;;;;0.67;0.67;;;;;3.30;96916.00;;;;5017887;28;20189;-60
2024/01/23 06:18:18;;;;;;;0.60;0.60;;;;;3.20;96928.00;;;;5017284;28;20201;-61
2024/01/23 06:20:46;;;;;;;0.60;0.60;;;;;3.30;96936.00;;;;5035271;28;20189;-60
2024/01/23 06:23:14;;;;;;;0.90;0.90;;;;;3.20;96939.00;;;;5034080;28;20213;-60
2024/01/23 06:25:42;;;;;;;0.70;0.70;;;;;3.10;96944.00;;;;5036490;28;20223;-60
2024/01/23 06:28:10;;;;;;;0.90;0.90;;;;;3.20;96953.00;;;;5018199;28;20196;-60
2024/01/23 06:30:37;;;;;;;0.70;0.70;;;;;3.20;96956.00;;;;5035194;28;20561;-60
2024/01/23 06:33:05;;;;;;;0.70;0.70;;;;;3.20;96960.00;;;;5034451;28;20574;-60
2024/01/23 06:35:33;;;;;;;1.67;1.57;;;;;3.20;96974.00;;;;5034999;28;20213;-60
2024/01/23 06:38:00;;;;;;;0.60;0.60;;;;;3.40;96972.00;;;;5034922;28;20196;-61
2024/01/23 06:40:28;;;;;;;0.60;0.60;;;;;3.50;96986.00;;;;5034308;28;20197;-65
2024/01/23 06:42:57;;;;;;;0.70;0.70;;;;;3.20;96992.00;;;;5033794;28;20219;-61
2024/01/23 06:45:24;;;;;;;1.07;1.07;;;;;3.40;96988.00;;;;5034977;28;20271;-60
2024/01/23 06:47:52;;;;;;;0.70;0.70;;;;;3.20;96993.00;;;;5035060;28;20193;-60
2024/01/23 06:50:23;;;;;;;0.90;0.90;;;;;3.20;96999.00;;;;5035495;28;20201;-60
2024/01/23 06:52:50;;;;;;;0.97;0.97;;;;;3.20;97014.00;;;;5035062;28;20214;-60
2024/01/23 06:55:18;;;;;;;0.60;0.60;;;;;3.30;97021.00;;;;5034174;28;20280;-61
2024/01/23 06:57:45;;;;;;;1.00;1.00;;;;;3.20;97020.00;;;;5034813;28;20605;-60
2024/01/23 07:00:15;;;;;;;0.70;0.70;;;;;3.30;97031.00;;;;5035204;28;20538;-60
2024/01/23 07:02:42;;;;;;;0.60;0.60;;;;;3.50;97021.00;;;;5034162;28;20708;-60
2024/01/23 07:05:10;;;;;;;1.17;1.17;;;;;3.40;97020.00;;;;5033878;28;20196;-60
2024/01/23 07:07:37;;;;;;;0.60;0.60;;;;;3.40;97028.00;;;;5033946;28;20216;-61
2024/01/23 07:10:05;;;;;;;0.70;0.70;;;;;3.50;97043.00;;;;5035284;28;20193;-62
2024/01/23 07:12:36;;;;;;;0.97;0.97;;;;;3.60;97058.00;;;;5037617;28;20216;-62
2024/01/23 07:15:10;;;;;;;1.70;1.60;;;;;3.50;97066.00;;;;5021945;28;20209;-61
2024/01/23 07:17:39;;;;;;;1.37;1.10;;;;;3.70;97069.00;;;;5039542;28;20532;-61
2024/01/23 07:20:10;;;;;;;0.87;0.87;;;;;3.60;97070.00;;;;5037698;28;20219;-61
2024/01/23 07:22:37;;;;;;;0.73;0.73;;;;;3.50;97077.00;;;;5034146;28;20212;-61
2024/01/23 07:25:06;;;;;;;1.07;1.07;;;;;3.60;97059.00;;;;5034447;28;20204;-60
2024/01/23 07:27:33;;;;;;;1.30;1.20;;;;;3.60;97072.00;;;;5034543;28;20220;-60
2024/01/23 07:30:00;;;;;;;1.00;0.80;;;;;3.70;97073.00;;;;5035486;28;20220;-60
2024/01/23 07:32:28;;;;;;;1.23;1.13;;;;;3.60;97074.00;;;;5034748;28;20216;-60
2024/01/23 07:34:57;;;;;;;5.97;0.90;;;;;3.50;97075.00;;;;5035907;28;20204;-60
2024/01/23 07:37:24;;;;;;;2.13;1.13;;;;;3.50;97079.00;;;;5034063;28;20553;-60
2024/01/23 07:39:52;;;;;;;0.90;0.90;;;;;3.60;97071.00;;;;5034101;28;20193;-60
2024/01/23 07:42:19;;;;;;;1.00;1.00;;;;;3.60;97078.00;;;;5034752;28;20225;-60
2024/01/23 07:44:47;;;;;;;1.03;0.93;;;;;3.70;97082.00;;;;5017100;28;20200;-60
2024/01/23 07:47:14;;;;;;;0.70;0.70;;;;;3.60;97083.00;;;;5034267;28;20573;-60
2024/01/23 07:49:42;;;;;;;0.97;0.90;;;;;3.70;97091.00;;;;5035107;28;20622;-60
2024/01/23 07:52:11;;;;;;;0.80;0.80;;;;;3.70;97096.00;;;;5039179;28;20208;-60
2024/01/23 07:54:39;;;;;;;0.93;0.93;;;;;3.70;97094.00;;;;5037639;28;20193;-60
2024/01/23 07:57:06;;;;;;;2.40;1.47;;;;;3.70;97086.00;;;;5038437;28;20275;-60
2024/01/23 07:59:33;;;;;;;1.40;1.30;;;;;3.60;97095.00;;;;5036979;28;20205;-60
2024/01/23 08:02:01;;;;;;;0.87;0.87;;;;;3.70;97099.00;;;;5020284;28;20217;-60
2024/01/23 08:04:28;;;;;;;1.40;1.37;;;;;3.60;97098.00;;;;5038286;28;20219;-60
2024/01/23 08:06:56;;;;;;;1.30;0.77;;;;;3.50;97099.00;;;;5038525;28;20212;-60
2024/01/23 08:09:25;;;;;;;1.47;1.37;;;;;3.90;97113.00;;;;5037988;28;20238;-60
2024/01/23 08:11:53;;;;;;;0.97;0.97;;;;;4.10;97114.00;;;;5037955;28;20209;-60
2024/01/23 08:14:20;;;;;;;1.10;1.10;;;;;4.10;97126.00;;;;5036715;28;20224;-61
2024/01/23 08:16:48;;;;;;;1.60;1.53;;;;;4.10;97127.00;;;;5037655;28;20272;-60
2024/01/23 08:19:15;;;;;;;0.97;0.97;;;;;4.00;97134.00;;;;5040253;28;20199;-60
2024/01/23 08:21:43;;;;;;;0.87;0.87;;;;;4.30;97141.00;;;;5037716;28;20192;-60
2024/01/23 08:24:10;;;;;;;5.60;1.10;;;;;4.20;97134.00;;;;5038449;28;20193;-60
2024/01/23 08:26:39;;;;;;;0.60;0.60;;;;;4.10;97141.00;;;;5037162;28;20580;-60
2024/01/23 08:29:07;;;;;;;0.60;0.60;;;;;4.20;97153.00;;;;5036902;28;20199;-60
2024/01/23 08:31:35;;;;;;;0.63;0.63;;;;;4.20;97157.00;;;;5037932;28;20211;-60
2024/01/23 08:34:02;;;;;;;1.00;1.00;;;;;4.20;97155.00;;;;5037020;28;20215;-60
2024/01/23 08:36:30;;;;;;;0.70;0.70;;;;;4.30;97147.00;;;;5037465;28;20575;-60
2024/01/23 08:38:57;;;;;;;0.63;0.63;;;;;4.10;97150.00;;;;5039135;28;20261;-60
2024/01/23 08:41:25;;;;;;;0.80;0.80;;;;;3.90;97157.00;;;;5019828;28;20510;-60
2024/01/23 08:43:54;;;;;;;1.37;1.13;;;;;4.00;97164.00;;;;5037558;28;20203;-60
2024/01/23 08:46:22;;;;;;;1.10;1.10;;;;;3.90;97163.00;;;;5036619;28;20226;-59
2024/01/23 08:48:50;;;;;;;0.60;0.60;;;;;3.90;97167.00;;;;5037179;28;20193;-60
2024/01/23 08:51:24;;;;;;;0.60;0.60;;;;;3.90;97168.00;;;;5038166;28;20195;-60
2024/01/23 08:53:51;;;;;;;0.50;0.50;;;;;4.10;97166.00;;;;5038666;28;20514;-60
2024/01/23 08:56:21;;;;;;;0.80;0.80;;;;;4.30;97182.00;;;;5036014;28;20226;-60
2024/01/23 08:58:48;;;;;;;0.60;0.60;;;;;4.20;97173.00;;;;5036699;28;20197;-60
2024/01/23 09:01:17;;;;;;;1.03;1.03;;;;;4.20;97176.00;;;;5037878;28;20193;-60
2024/01/23 09:03:46;;;;;;;0.97;0.97;;;;;4.30;97165.00;;;;5037548;28;20324;-60
2024/01/23 09:06:14;;;;;;;0.70;0.70;;;;;4.50;97166.00;;;;5037354;28;20189;-60
2024/01/23 09:08:43;;;;;;;0.60;0.60;;;;;4.60;97163.00;;;;5036838;28;20275;-60
2024/01/23 09:11:11;;;;;;;0.50;0.50;;;;;4.80;97163.00;;;;5036538;28;20193;-60
2024/01/23 09:13:38;;;;;;;0.60;0.60;;;;;4.90;97178.00;;;;5035782;28;20216;-60
2024/01/23 09:16:07;;;;;;;0.60;0.60;;;;;4.70;97191.00;;;;5037204;28;20682;-60
2024/01/23 09:18:37;;;;;;;0.50;0.50;;;;;4.60;97187.00;;;;5036361;28;20218;-60
2024/01/23 09:21:05;;;;;;;0.80;0.80;;;;;4.60;97177.00;;;;5037287;28;20193;-60
2024/01/23 09:23:32;;;;;;;0.90;0.90;;;;;4.90;97190.00;;;;5035395;28;20704;-60
2024/01/23 09:26:00;;;;;;;1.20;1.03;;;;;5.00;97196.00;;;;5035461;28;20302;-60
2024/01/23 09:28:27;;;;;;;2.53;2.03;;;;;4.80;97191.00;;;;5036345;28;20193;-61
2024/01/23 09:30:58;;;;;;;0.90;0.90;;;;;5.00;97220.00;;;;5035676;28;20192;-60
2024/01/23 09:33:25;;;;;;;0.67;0.67;;;;;4.80;97215.00;;;;5035160;28;20220;-60
2024/01/23 09:35:54;;;;;;;0.77;0.77;;;;;4.70;97204.00;;;;5035372;28;20188;-61
2024/01/23 09:38:22;;;;;;;1.70;0.87;;;;;4.70;97212.00;;;;5036568;28;20231;-60
2024/01/23 09:40:51;;;;;;;0.63;0.63;;;;;4.80;97217.00;;;;5017533;28;20284;-60
2024/01/23 09:43:27;;;;;;;0.63;0.63;;;;;4.90;97217.00;;;;5035174;28;20209;-60
2024/01/23 09:45:56;;;;;;;1.23;1.23;;;;;4.90;97223.00;;;;5035489;28;20263;-60
2024/01/23 09:48:24;;;;;;;0.70;0.70;;;;;5.00;97233.00;;;;5035800;28;20307;-60
2024/01/23 09:50:52;;;;;;;0.90;0.90;;;;;5.10;97223.00;;;;5036836;28;20220;-60
2024/01/23 09:53:23;;;;;;;0.60;0.60;;;;;5.20;97242.00;;;;5035602;28;20304;-60
2024/01/23 09:55:51;;;;;;;0.70;0.70;;;;;5.30;97237.00;;;;5035228;28;20189;-60
2024/01/23 09:58:20;;;;;;;0.60;0.60;;;;;5.50;97225.00;;;;5034652;28;20270;-60
2024/01/23 10:00:48;;;;;;;0.70;0.70;;;;;5.60;97232.00;;;;5036076;28;20203;-60
2024/01/23 10:03:16;;;;;;;0.67;0.67;;;;;5.40;97221.00;;;;5035002;28;20208;-60
2024/01/23 10:05:43;;;;;;;0.70;0.70;;;;;5.70;97230.00;;;;5036809;28;20218;-60
2024/01/23 10:08:11;;;;;;;23.77;1.30;;;;;5.50;97232.00;;;;5034137;28;20604;-60
2024/01/23 10:10:40;;;;;;;1.33;1.30;;;;;5.40;97238.00;;;;5035324;28;20594;-60
2024/01/23 10:13:11;;;;;;;0.90;0.90;;;;;5.80;97234.00;;;;5018333;28;20763;-60
2024/01/23 10:15:38;;;;;;;0.80;0.80;;;;;5.70;97233.00;;;;5033300;28;20196;-60
2024/01/23 10:18:06;;;;;;;1.30;1.30;;;;;5.90;97244.00;;;;5035814;28;20185;-60
2024/01/23 10:20:39;;;;;;;1.00;1.00;;;;;5.70;97259.00;;;;5035799;28;20224;-60
2024/01/23 10:23:08;;;;;;;1.07;0.97;;;;;5.30;97254.00;;;;5035400;28;20224;-60
2024/01/23 10:25:35;;;;;;;3.67;1.47;;;;;5.30;97248.00;;;;5034394;28;20216;-60
2024/01/23 10:28:08;;;;;;;9.33;2.27;;;;;5.80;97241.00;;;;5034425;28;20211;-60
2024/01/23 10:30:36;;;;;;;0.70;0.70;;;;;6.20;97260.00;;;;5036283;28;20251;-60
2024/01/23 10:33:04;;;;;;;1.10;1.10;;;;;6.10;97259.00;;;;5017620;28;20216;-60
2024/01/23 10:35:34;;;;;;;0.60;0.60;;;;;6.00;97263.00;;;;5035337;28;20231;-60
2024/01/23 10:38:03;;;;;;;1.53;1.43;;;;;6.30;97259.00;;;;5034495;28;20262;-60
2024/01/23 10:40:30;;;;;;;0.97;0.97;;;;;6.30;97247.00;;;;5035149;28;20192;-60
2024/01/23 10:42:58;;;;;;;1.50;1.40;;;;;6.50;97271.00;;;;5034717;28;20211;-61
2024/01/23 10:45:28;;;;;;;1.60;1.50;;;;;6.30;97265.00;;;;5034695;28;20673;-60
2024/01/23 10:47:57;;;;;;;10.10;1.53;;;;;6.30;97249.00;;;;5034773;28;20230;-60
2024/01/23 10:50:24;;;;;;;0.70;0.70;;;;;6.60;97247.00;;;;5035066;28;20220;-60
2024/01/23 10:52:52;;;;;;;3.70;1.00;;;;;6.90;97245.00;;;;5033658;28;20218;-61
2024/01/23 10:55:22;;;;;;;1.27;1.17;;;;;7.40;97238.00;;;;5034353;28;20560;-60
2024/01/23 10:57:50;;;;;;;0.60;0.60;;;;;6.80;97241.00;;;;5034830;28;20275;-60
2024/01/23 11:00:20;;;;;;;1.73;1.47;;;;;7.30;97235.00;;;;5017262;28;20196;-60
2024/01/23 11:02:53;;;;;;;2.77;2.07;;;;;6.60;97247.00;;;;5035857;28;20213;-60
2024/01/23 11:05:25;;;;;;;0.77;0.77;;;;;6.40;97241.00;;;;5034751;28;20190;-60
2024/01/23 11:07:58;;;;;;;1.17;1.17;;;;;7.10;97226.00;;;;5033528;28;20208;-60
2024/01/23 11:10:30;;;;;;;6.60;1.07;;;;;6.50;97231.00;;;;5034067;28;20192;-60
2024/01/23 11:13:07;;;;;;;1.57;1.47;;;;;6.20;97247.00;;;;5037501;28;20217;-60
2024/01/23 11:15:35;;;;;;;1.73;1.63;;;;;6.20;97246.00;;;;5034027;28;20200;-60
2024/01/23 11:18:38;;;;;;;1.00;1.00;;;;;6.00;97260.00;;;;5034453;28;20217;-60
2024/01/23 11:21:17;;;;;;;0.90;0.90;;;;;6.00;97269.00;;;;5027321;28;20208;-60
2024/01/23 11:23:46;;;;;;;0.60;0.60;;;;;5.90;97271.00;;;;5033335;28;20214;-61
2024/01/23 11:26:16;;;;;;;1.43;1.30;;;;;6.40;97226.00;;;;5035740;28;20189;-60
2024/01/23 11:28:45;;;;;;;1.00;1.00;;;;;7.30;97228.00;;;;5038269;28;20201;-60
2024/01/23 11:31:19;;;;;;;4.13;1.47;;;;;7.40;97215.00;;;;5038672;28;20660;-60
2024/01/23 11:33:46;;;;;;;0.60;0.60;;;;;8.30;97217.00;;;;5038595;28;20512;-60
2024/01/23 11:36:22;;;;;;;0.90;0.90;;;;;8.10;97238.00;;;;5037578;28;20196;-60
2024/01/23 11:38:50;;;;;;;2.03;1.60;;;;;8.40;97226.00;;;;5038140;28;20512;-60
2024/01/23 11:41:23;;;;;;;3.50;1.43;;;;;8.90;97209.00;;;;5036913;28;20649;-60
2024/01/23 11:43:53;;;;;;;0.93;0.93;;;;;9.10;97233.00;;;;5037799;28;20232;-60
2024/01/23 11:46:21;;;;;;;0.50;0.50;;;;;9.40;97216.00;;;;5021061;28;20196;-60
2024/01/23 11:48:50;;;;;;;0.60;0.60;;;;;8.20;97257.00;;;;5036509;28;20217;-60
2024/01/23 11:51:20;;;;;;;1.43;1.43;;;;;8.50;97217.00;;;;5036515;28;20197;-60
2024/01/23 11:53:48;;;;;;;11.37;1.47;;;;;8.80;97217.00;;;;5037211;28;20209;-60
2024/01/23 11:56:16;;;;;;;2.33;1.30;;;;;8.10;97266.00;;;;5037182;28;20205;-61
2024/01/23 11:58:44;;;;;;;1.77;1.67;;;;;8.30;97273.00;;;;5021962;28;20228;-60
2024/01/23 12:01:14;;;;;;;0.90;0.90;;;;;7.30;97278.00;;;;5037074;28;20200;-59
2024/01/23 12:03:47;;;;;;;0.73;0.73;;;;;6.60;97277.00;;;;5037002;28;20235;-60
2024/01/23 12:06:15;;;;;;;1.40;1.30;;;;;6.70;97293.00;;;;5037506;28;20185;-59
2024/01/23 12:08:44;;;;;;;0.90;0.90;;;;;6.70;97273.00;;;;5037039;28;20213;-59
2024/01/23 12:11:14;;;;;;;1.03;1.03;;;;;6.60;97271.00;;;;5037244;28;20193;-59
2024/01/23 12:13:45;;;;;;;0.90;0.90;;;;;6.40;97290.00;;;;5018646;28;20225;-59
2024/01/23 12:16:13;;;;;;;1.00;1.00;;;;;6.40;97265.00;;;;5036920;28;20169;-60
2024/01/23 12:18:41;;;;;;;3.30;1.73;;;;;6.20;97271.00;;;;5036318;28;20217;-59
2024/01/23 12:21:11;;;;;;;1.03;1.03;;;;;6.10;97269.00;;;;5039676;28;20280;-59
2024/01/23 12:23:39;;;;;;;1.70;1.30;;;;;6.60;97259.00;;;;5021422;28;20235;-59
2024/01/23 12:26:09;;;;;;;1.70;1.30;;;;;6.50;97262.00;;;;5037907;28;20220;-59
2024/01/23 12:28:38;;;;;;;0.50;0.50;;;;;6.50;97258.00;;;;5038356;28;20216;-59
2024/01/23 12:31:12;;;;;;;1.80;1.57;;;;;6.50;97255.00;;;;5036231;28;20275;-59